Time;durP1;ratioP1;P1;durP2;ratioP2;P2;SDS_P1;SDS_P2;PMS_P1;PMS_P2;Temp;Humidity;BMP_temperature;BMP_pressure;BME280_temperature;BME280_humidity;BME280_pressure;Samples;Min_cycle;Max_cycle;Signal;HPM_P1;HPM_P2
2021/09/29 00:01:43;;;;;;;2.97;2.77;;;;;;;21.96;86.24;97673.25;5017163;28;20204;-66
2021/09/29 00:04:10;;;;;;;3.13;2.93;;;;;;;21.96;86.42;97668.13;5011864;28;20647;-64
2021/09/29 00:06:37;;;;;;;3.00;2.80;;;;;;;21.97;86.41;97669.84;5002726;28;20209;-64
2021/09/29 00:09:03;;;;;;;2.90;2.70;;;;;;;21.92;86.32;97656.94;5054694;28;20209;-65
2021/09/29 00:11:30;;;;;;;2.80;2.60;;;;;;;21.98;86.03;97666.47;5016934;28;20201;-64
2021/09/29 00:13:57;;;;;;;4.27;3.17;;;;;;;21.98;86.12;97656.22;5011394;28;20197;-65
2021/09/29 00:16:24;;;;;;;2.90;2.67;;;;;;;21.92;86.31;97645.81;5011306;28;20705;-64
2021/09/29 00:18:51;;;;;;;2.90;2.70;;;;;;;22.01;86.10;97664.00;5012196;28;20283;-65
2021/09/29 00:21:17;;;;;;;2.90;2.70;;;;;;;22.01;86.21;97653.75;5015102;28;20205;-64
2021/09/29 00:23:44;;;;;;;3.40;3.10;;;;;;;22.01;86.07;97652.06;5015646;28;20290;-64
2021/09/29 00:26:12;;;;;;;2.87;2.63;;;;;;;22.02;85.98;97647.84;5030546;28;20363;-64
2021/09/29 00:28:39;;;;;;;3.33;2.60;;;;;;;22.03;86.02;97644.44;5014406;28;20254;-66
2021/09/29 00:31:06;;;;;;;2.93;2.63;;;;;;;22.02;85.93;97646.13;5006044;28;20225;-66
2021/09/29 00:33:37;;;;;;;3.20;3.00;;;;;;;22.04;85.79;97646.16;5037490;28;20246;-64
2021/09/29 00:36:04;;;;;;;3.23;2.87;;;;;;;22.04;85.71;97643.59;5014029;28;20216;-66
2021/09/29 00:38:31;;;;;;;3.60;3.30;;;;;;;22.05;85.77;97645.38;5010772;28;20738;-64
2021/09/29 00:40:58;;;;;;;2.90;2.70;;;;;;;22.05;85.83;97645.38;5016482;28;20206;-64
2021/09/29 00:43:25;;;;;;;3.00;2.70;;;;;;;22.04;85.51;97641.94;5004180;28;20270;-63
2021/09/29 00:45:52;;;;;;;2.87;2.67;;;;;;;22.06;85.69;97637.72;5003060;28;20290;-64
2021/09/29 00:48:19;;;;;;;2.77;2.57;;;;;;;22.07;85.65;97646.25;5024230;28;20209;-64
2021/09/29 00:50:46;;;;;;;3.00;2.80;;;;;;;21.99;85.79;97625.56;5001116;28;20732;-62
2021/09/29 00:53:12;;;;;;;2.90;2.70;;;;;;;21.45;85.59;97535.25;5021445;28;20200;-64
2021/09/29 00:55:39;;;;;;;3.13;2.83;;;;;;;22.08;85.57;97636.06;5017223;28;20248;-64
2021/09/29 00:58:05;;;;;;;2.83;2.63;;;;;;;22.08;85.69;97635.22;5008741;28;20201;-65
2021/09/29 01:00:32;;;;;;;2.87;2.67;;;;;;;22.09;85.32;97637.81;5018175;28;20189;-64
2021/09/29 01:03:00;;;;;;;2.70;2.50;;;;;;;22.09;85.56;97637.81;4996807;28;20875;-64
2021/09/29 01:05:26;;;;;;;2.87;2.67;;;;;;;22.09;85.47;97631.81;5016899;28;20216;-64
2021/09/29 01:08:12;;;;;;;3.30;3.10;;;;;;;22.08;85.33;97624.97;5000042;28;20314;-64
2021/09/29 01:10:51;;;;;;;3.27;2.97;;;;;;;22.07;85.34;97628.34;5008782;28;20255;-64
2021/09/29 01:13:17;;;;;;;3.17;2.87;;;;;;;22.05;84.98;97627.44;5022465;28;20209;-67
2021/09/29 01:15:53;;;;;;;3.00;2.80;;;;;;;22.03;85.67;97623.97;5047394;28;20297;-64
2021/09/29 01:18:20;;;;;;;3.00;2.70;;;;;;;22.03;85.74;97623.97;5013263;28;20426;-64
2021/09/29 01:20:53;;;;;;;2.77;2.57;;;;;;;21.61;85.76;97559.56;5003826;28;20626;-64
2021/09/29 01:23:45;;;;;;;3.03;2.73;;;;;;;21.99;85.80;97624.72;5005364;28;20266;-64
2021/09/29 01:26:21;;;;;;;3.33;3.07;;;;;;;21.96;86.02;97620.34;5017846;28;20270;-64
2021/09/29 01:28:51;;;;;;;2.80;2.60;;;;;;;21.98;86.04;97625.50;5035970;28;20208;-65
2021/09/29 01:31:18;;;;;;;2.90;2.70;;;;;;;21.94;86.00;97624.59;5023141;28;20227;-64
2021/09/29 01:33:45;;;;;;;3.37;3.07;;;;;;;21.95;86.12;97623.75;5037292;28;20240;-64
2021/09/29 01:36:12;;;;;;;2.97;2.73;;;;;;;21.95;86.16;97621.19;5023492;28;20266;-64
2021/09/29 01:38:42;;;;;;;3.13;2.83;;;;;;;21.94;86.19;97624.59;5030966;28;20488;-64
2021/09/29 01:41:09;;;;;;;3.20;2.70;;;;;;;21.87;86.14;97620.09;5014370;28;20202;-64
2021/09/29 01:43:36;;;;;;;3.13;2.90;;;;;;;21.93;86.23;97630.50;5011378;28;20214;-64
2021/09/29 01:46:02;;;;;;;3.20;2.90;;;;;;;21.94;86.31;97631.38;5036420;28;20289;-64
2021/09/29 01:48:29;;;;;;;3.00;2.80;;;;;;;21.95;86.51;97633.09;5023036;28;20209;-64
2021/09/29 01:50:58;;;;;;;4.17;2.53;;;;;;;21.87;86.38;97620.09;5017050;28;20201;-63
2021/09/29 01:53:24;;;;;;;4.13;2.87;;;;;;;21.95;86.31;97633.97;5007020;28;20197;-65
2021/09/29 01:55:51;;;;;;;3.20;3.00;;;;;;;21.97;86.14;97641.72;5015827;28;20278;-64
2021/09/29 01:58:18;;;;;;;2.90;2.70;;;;;;;21.96;86.18;97634.88;5020318;28;20210;-64
2021/09/29 02:00:44;;;;;;;2.80;2.60;;;;;;;21.90;86.27;97627.84;5006919;28;20267;-64
2021/09/29 02:03:11;;;;;;;2.90;2.60;;;;;;;22.00;86.22;97641.78;5023676;28;20224;-65
2021/09/29 02:05:38;;;;;;;3.27;2.97;;;;;;;21.93;86.22;97629.66;5004918;28;20228;-64
2021/09/29 02:08:06;;;;;;;3.10;2.80;;;;;;;22.00;85.97;97639.22;5015572;28;20705;-65
2021/09/29 02:10:33;;;;;;;2.87;2.67;;;;;;;22.01;85.76;97646.06;5037597;28;20209;-66
2021/09/29 02:12:59;;;;;;;2.70;2.50;;;;;;;22.01;85.92;97646.06;5018315;28;20193;-65
2021/09/29 02:15:26;;;;;;;2.90;2.70;;;;;;;22.02;86.17;97652.97;5005711;28;20267;-64
2021/09/29 02:17:53;;;;;;;3.10;2.90;;;;;;;21.96;85.82;97639.97;5004426;28;20204;-64
2021/09/29 02:20:19;;;;;;;3.33;3.00;;;;;;;22.03;85.71;97657.25;5031625;28;20257;-64
2021/09/29 02:22:46;;;;;;;2.80;2.60;;;;;;;22.03;85.91;97653.00;5003003;28;20217;-65
2021/09/29 02:25:13;;;;;;;2.57;2.37;;;;;;;22.04;85.65;97658.97;5031743;28;20220;-64
2021/09/29 02:27:39;;;;;;;3.00;2.80;;;;;;;22.03;85.82;97658.13;5003776;28;20263;-64
2021/09/29 02:30:07;;;;;;;3.03;2.83;;;;;;;22.05;85.65;97665.84;5014865;28;20258;-64
2021/09/29 02:32:35;;;;;;;3.27;2.80;;;;;;;22.06;85.54;97672.69;5020846;28;20250;-64
2021/09/29 02:35:04;;;;;;;3.03;2.73;;;;;;;21.98;85.58;97662.22;4999453;28;20690;-63
2021/09/29 02:37:30;;;;;;;4.13;2.97;;;;;;;22.07;85.62;97679.53;5019222;28;20254;-65
2021/09/29 02:39:57;;;;;;;2.97;2.67;;;;;;;22.07;85.41;97684.66;4999064;28;20232;-66
2021/09/29 02:42:24;;;;;;;2.70;2.50;;;;;;;22.06;85.29;97671.00;5013707;28;20209;-64
2021/09/29 02:44:50;;;;;;;7.20;2.63;;;;;;;21.99;85.47;97665.66;5010526;28;20245;-64
2021/09/29 02:47:17;;;;;;;3.07;2.83;;;;;;;22.00;85.47;97669.94;5010385;28;20201;-64
2021/09/29 02:49:44;;;;;;;3.10;2.90;;;;;;;22.02;85.53;97669.16;5023029;28;20602;-65
2021/09/29 02:52:10;;;;;;;3.17;2.90;;;;;;;22.06;85.29;97683.81;5003157;28;20252;-63
2021/09/29 02:54:37;;;;;;;3.10;2.83;;;;;;;22.04;85.25;97664.97;5002841;28;20806;-65
2021/09/29 02:57:04;;;;;;;2.60;2.40;;;;;;;21.96;85.30;97642.53;5011792;28;20209;-64
2021/09/29 02:59:31;;;;;;;3.00;2.80;;;;;;;22.02;85.66;97658.91;5011390;28;20205;-64
2021/09/29 03:01:57;;;;;;;3.27;2.97;;;;;;;22.00;85.49;97654.59;5048281;28;20209;-64
2021/09/29 03:04:24;;;;;;;3.20;2.90;;;;;;;21.99;85.53;97652.88;5020251;28;20228;-64
2021/09/29 03:06:51;;;;;;;2.90;2.70;;;;;;;21.99;85.73;97651.16;4995493;28;20229;-64
2021/09/29 03:09:18;;;;;;;2.70;2.50;;;;;;;21.91;85.83;97638.97;5029020;28;20213;-64
2021/09/29 03:11:44;;;;;;;3.53;2.87;;;;;;;21.97;85.73;97652.81;5025743;28;20219;-64
2021/09/29 03:14:11;;;;;;;3.33;2.90;;;;;;;21.95;85.91;97654.47;5001986;28;20235;-64
2021/09/29 03:16:38;;;;;;;3.10;2.90;;;;;;;21.88;86.03;97636.31;5003390;28;20233;-64
2021/09/29 03:19:04;;;;;;;3.10;2.90;;;;;;;21.94;86.06;97656.97;5022842;28;20205;-64
2021/09/29 03:21:31;;;;;;;2.93;2.73;;;;;;;21.86;85.94;97637.94;5002339;28;20665;-65
2021/09/29 03:23:58;;;;;;;5.60;3.10;;;;;;;21.92;85.58;97654.38;4998754;28;20743;-64
2021/09/29 03:26:25;;;;;;;3.10;2.90;;;;;;;21.93;85.91;97650.13;5007745;28;20371;-65
2021/09/29 03:28:52;;;;;;;3.23;2.80;;;;;;;21.49;85.85;97575.44;5015829;28;20632;-64
2021/09/29 03:31:18;;;;;;;3.40;3.10;;;;;;;21.88;86.33;97638.88;5015934;28;20340;-66
2021/09/29 03:33:45;;;;;;;4.10;3.30;;;;;;;21.93;86.01;97648.41;4996654;28;20509;-64
2021/09/29 03:36:12;;;;;;;3.20;2.90;;;;;;;21.93;86.02;97640.75;5017531;28;20256;-65
2021/09/29 03:38:38;;;;;;;3.30;3.00;;;;;;;21.95;86.22;97645.91;5014661;28;20255;-64
2021/09/29 03:41:05;;;;;;;3.40;3.10;;;;;;;21.88;86.11;97641.44;5005723;28;20225;-63
2021/09/29 03:43:32;;;;;;;4.00;3.50;;;;;;;21.95;85.85;97662.13;5012796;28;20220;-64
2021/09/29 03:45:59;;;;;;;3.57;3.27;;;;;;;21.96;86.19;97663.84;5037693;23;20225;-66
2021/09/29 03:48:26;;;;;;;3.50;3.20;;;;;;;21.97;85.78;97660.50;5027269;28;20654;-65
2021/09/29 03:50:52;;;;;;;3.83;3.50;;;;;;;21.84;85.86;97665.22;5017091;28;20237;-65
2021/09/29 03:53:19;;;;;;;3.40;3.10;;;;;;;21.52;85.88;97624.13;5028633;28;20209;-65
2021/09/29 03:55:45;;;;;;;3.60;3.30;;;;;;;21.99;85.89;97701.50;5021380;28;20257;-66
2021/09/29 03:58:12;;;;;;;3.80;3.40;;;;;;;21.82;85.83;97680.50;5017186;28;20303;-65
2021/09/29 04:00:39;;;;;;;3.80;3.37;;;;;;;21.81;86.04;97683.88;4998816;28;20208;-66
2021/09/29 04:03:07;;;;;;;4.70;3.40;;;;;;;22.01;85.90;97710.06;4997587;28;20221;-65
2021/09/29 04:05:34;;;;;;;3.73;3.43;;;;;;;22.01;85.56;97721.19;5014943;28;20218;-65
2021/09/29 04:08:01;;;;;;;3.70;3.40;;;;;;;21.90;85.76;97693.53;4997426;28;20233;-66
2021/09/29 04:10:27;;;;;;;4.10;3.70;;;;;;;22.03;85.40;97711.88;4988237;28;20256;-66
2021/09/29 04:12:54;;;;;;;3.87;3.57;;;;;;;22.03;85.42;97709.31;5010724;28;20206;-65
2021/09/29 04:15:21;;;;;;;4.20;3.90;;;;;;;22.04;85.30;97702.47;5005535;28;20241;-65
2021/09/29 04:17:47;;;;;;;5.33;4.60;;;;;;;21.10;84.78;97543.53;5023484;28;20779;-65
2021/09/29 04:20:14;;;;;;;7.17;6.47;;;;;;;21.13;83.03;97542.75;5001981;28;20631;-66
2021/09/29 04:22:40;;;;;;;7.97;7.27;;;;;;;21.91;82.00;97668.00;4990030;28;20213;-66
2021/09/29 04:25:07;;;;;;;7.83;7.10;;;;;;;21.91;81.36;97664.56;5013654;28;20246;-65
2021/09/29 04:27:34;;;;;;;8.37;7.40;;;;;;;21.94;81.39;97656.97;5008925;28;20260;-67
2021/09/29 04:30:00;;;;;;;7.77;6.97;;;;;;;21.95;81.69;97668.94;4984206;28;20283;-66
2021/09/29 04:32:28;;;;;;;7.43;6.73;;;;;;;21.96;82.09;97671.53;5017275;28;20734;-67
2021/09/29 04:34:55;;;;;;;9.87;6.50;;;;;;;22.02;81.87;97688.78;5019565;28;20193;-65
2021/09/29 04:37:21;;;;;;;7.30;6.60;;;;;;;22.02;82.03;97688.78;5018381;28;20304;-66
2021/09/29 04:39:48;;;;;;;6.87;6.27;;;;;;;22.00;82.41;97691.28;5021125;28;20296;-65
2021/09/29 04:42:14;;;;;;;7.10;6.40;;;;;;;22.00;82.32;97682.75;5022762;28;20360;-65
2021/09/29 04:44:41;;;;;;;8.87;7.97;;;;;;;21.98;82.19;97680.13;5025430;28;20323;-66
2021/09/29 04:47:08;;;;;;;10.27;9.20;;;;;;;21.98;81.70;97689.50;5019874;28;20724;-67
2021/09/29 04:49:34;;;;;;;10.33;9.33;;;;;;;21.95;80.98;97687.72;5022340;28;20647;-66
2021/09/29 04:52:01;;;;;;;11.30;10.13;;;;;;;21.93;80.79;97691.91;5025648;28;20232;-66
2021/09/29 04:54:28;;;;;;;11.57;10.47;;;;;;;21.93;80.82;97699.59;5025482;28;20284;-66
2021/09/29 04:56:54;;;;;;;11.17;10.13;;;;;;;21.91;80.69;97696.13;5023953;28;20254;-66
2021/09/29 04:59:21;;;;;;;10.57;9.67;;;;;;;21.90;80.39;97693.53;5026093;28;20256;-65
2021/09/29 05:01:47;;;;;;;11.40;10.30;;;;;;;21.88;80.43;97696.03;5027408;28;20292;-66
2021/09/29 05:04:15;;;;;;;11.20;10.20;;;;;;;21.87;80.38;97694.28;5013514;28;20329;-65
2021/09/29 05:06:41;;;;;;;11.27;10.13;;;;;;;21.85;80.69;97695.94;5026435;28;20248;-66
2021/09/29 05:09:08;;;;;;;11.33;10.23;;;;;;;21.84;80.42;97703.59;5028456;28;20198;-66
2021/09/29 05:11:40;;;;;;;11.60;10.13;;;;;;;21.83;80.52;97710.38;5030093;28;20206;-66
2021/09/29 05:14:07;;;;;;;11.43;10.27;;;;;;;21.82;80.68;97713.78;5028639;28;20190;-66
2021/09/29 05:16:33;;;;;;;11.43;10.33;;;;;;;21.82;80.81;97713.78;5029933;28;20749;-65
2021/09/29 05:19:00;;;;;;;11.80;10.60;;;;;;;21.82;80.83;97711.22;5029325;28;20643;-66
2021/09/29 05:21:27;;;;;;;10.77;9.77;;;;;;;21.83;81.71;97724.84;5009110;28;20441;-66
2021/09/29 05:23:53;;;;;;;11.90;10.67;;;;;;;21.83;81.40;97727.41;5026460;28;20257;-66
2021/09/29 05:26:20;;;;;;;11.97;10.70;;;;;;;21.82;81.52;97723.13;5028656;28;20308;-65
2021/09/29 05:28:50;;;;;;;11.37;10.27;;;;;;;21.83;81.39;97730.84;5015578;28;20269;-65
2021/09/29 05:31:18;;;;;;;11.23;10.13;;;;;;;21.83;81.37;97720.59;5026751;28;20201;-65
2021/09/29 05:33:44;;;;;;;11.33;10.23;;;;;;;21.83;81.27;97714.63;5028065;28;20194;-66
2021/09/29 05:36:11;;;;;;;10.70;9.70;;;;;;;21.83;81.30;97724.84;5024897;28;20351;-65
2021/09/29 05:38:38;;;;;;;11.57;10.37;;;;;;;21.84;81.44;97732.56;5024875;28;20601;-66
2021/09/29 05:41:04;;;;;;;11.27;10.20;;;;;;;21.84;81.53;97732.56;5030340;28;20679;-65
2021/09/29 05:43:31;;;;;;;11.43;10.23;;;;;;;21.84;81.43;97737.69;5006102;28;20414;-65
2021/09/29 05:45:58;;;;;;;11.27;9.63;;;;;;;21.53;81.67;97687.22;5024876;28;20230;-64
2021/09/29 05:48:25;;;;;;;11.97;9.73;;;;;;;21.85;81.52;97743.69;5018011;28;20247;-65
2021/09/29 05:50:52;;;;;;;10.70;9.70;;;;;;;21.71;81.85;97717.63;5022125;28;20264;-65
2021/09/29 05:53:18;;;;;;;11.40;10.10;;;;;;;21.85;81.92;97741.13;5027447;28;20645;-65
2021/09/29 05:55:45;;;;;;;11.47;9.47;;;;;;;21.85;82.47;97744.56;5013584;28;20253;-65
2021/09/29 05:58:11;;;;;;;11.60;10.40;;;;;;;21.86;81.86;97748.84;4999167;28;20252;-65
2021/09/29 06:00:38;;;;;;;12.67;11.47;;;;;;;21.87;81.54;97744.63;5026168;28;20200;-65
2021/09/29 06:03:05;;;;;;;13.10;11.80;;;;;;;21.87;81.33;97747.19;5020070;28;20874;-65
2021/09/29 06:05:32;;;;;;;13.87;12.30;;;;;;;21.89;80.92;97750.63;5021125;28;20222;-65
2021/09/29 06:07:58;;;;;;;13.00;11.63;;;;;;;21.89;80.89;97751.50;5025230;28;20631;-65
2021/09/29 06:10:25;;;;;;;14.40;12.93;;;;;;;21.89;80.73;97748.94;5026412;28;20284;-64
2021/09/29 06:12:51;;;;;;;14.33;13.03;;;;;;;21.86;80.66;97747.97;5011586;28;20251;-64
2021/09/29 06:15:27;;;;;;;14.07;12.67;;;;;;;21.90;80.26;97754.94;5026077;28;20217;-65
2021/09/29 06:17:57;;;;;;;17.20;13.57;;;;;;;21.88;79.96;97760.00;4986091;28;20213;-65
2021/09/29 06:20:26;;;;;;;14.40;12.90;;;;;;;21.87;79.74;97759.97;5010786;28;20608;-65
2021/09/29 06:22:53;;;;;;;18.20;13.47;;;;;;;21.71;79.93;97741.50;4979749;28;20283;-65
2021/09/29 06:25:21;;;;;;;16.83;12.63;;;;;;;21.83;80.14;97764.09;4985686;28;20261;-64
2021/09/29 06:27:49;;;;;;;14.27;12.77;;;;;;;21.82;79.73;97771.72;4996692;28;20240;-65
2021/09/29 06:30:16;;;;;;;15.10;13.07;;;;;;;21.79;80.16;97776.75;5008351;28;20275;-64
2021/09/29 06:32:43;;;;;;;14.67;13.23;;;;;;;21.77;80.15;97774.16;4979282;28;20561;-65
2021/09/29 06:35:09;;;;;;;15.47;13.87;;;;;;;21.76;80.44;97780.06;4996345;28;20210;-65
2021/09/29 06:37:39;;;;;;;14.80;13.20;;;;;;;21.50;79.90;97738.25;5004825;28;20245;-65
2021/09/29 06:40:07;;;;;;;17.93;14.00;;;;;;;21.71;80.31;97777.31;5012423;28;20837;-63
2021/09/29 06:42:34;;;;;;;14.50;13.00;;;;;;;21.70;80.40;97788.38;5027029;28;20755;-64
2021/09/29 06:45:00;;;;;;;17.03;15.23;;;;;;;21.69;80.48;97783.22;5027196;28;20228;-66
2021/09/29 06:47:27;;;;;;;16.83;13.97;;;;;;;21.64;80.45;97783.06;5025525;28;20240;-65
2021/09/29 06:49:54;;;;;;;16.77;14.00;;;;;;;21.67;80.25;97782.28;5008184;28;20264;-66
2021/09/29 06:52:20;;;;;;;18.10;13.93;;;;;;;21.67;80.13;97790.84;4977282;28;20255;-66
2021/09/29 06:54:47;;;;;;;17.07;13.93;;;;;;;21.66;80.46;97785.66;5017041;28;20248;-65
2021/09/29 06:57:13;;;;;;;15.23;13.57;;;;;;;21.67;79.83;97785.72;5021365;28;20222;-64
2021/09/29 06:59:40;;;;;;;15.00;13.40;;;;;;;21.66;80.19;97791.66;5008214;28;20288;-65
2021/09/29 07:02:10;;;;;;;16.03;13.87;;;;;;;21.66;80.19;97796.78;5022561;28;20201;-65
2021/09/29 07:04:37;;;;;;;17.10;13.47;;;;;;;21.65;80.19;97792.47;5020314;28;20239;-64
2021/09/29 07:07:04;;;;;;;14.23;12.73;;;;;;;21.66;80.67;97791.66;5024148;28;20248;-65
2021/09/29 07:09:31;;;;;;;14.43;13.03;;;;;;;21.68;80.41;97799.41;5021744;28;20600;-65
2021/09/29 07:11:57;;;;;;;16.10;13.50;;;;;;;21.68;80.38;97795.13;5023169;28;20225;-65
2021/09/29 07:14:28;;;;;;;18.13;14.80;;;;;;;21.37;80.06;97743.78;5018536;28;20202;-66
2021/09/29 07:16:55;;;;;;;17.53;13.40;;;;;;;21.69;80.39;97796.88;5007591;28;20312;-65
2021/09/29 07:19:21;;;;;;;14.00;12.50;;;;;;;21.69;80.23;97809.69;4986125;28;20198;-65
2021/09/29 07:21:48;;;;;;;15.43;13.33;;;;;;;21.56;80.42;97781.94;5010155;28;20206;-65
2021/09/29 07:24:15;;;;;;;14.90;13.37;;;;;;;21.69;80.61;97809.69;4998681;28;20275;-65
2021/09/29 07:26:41;;;;;;;15.70;13.23;;;;;;;21.70;80.90;97813.97;4984562;28;20287;-64
2021/09/29 07:29:10;;;;;;;14.13;12.63;;;;;;;21.70;80.98;97816.53;4986234;28;20626;-64
2021/09/29 07:31:37;;;;;;;13.67;12.30;;;;;;;21.71;80.91;97822.50;4985957;28;20209;-65
2021/09/29 07:34:06;;;;;;;15.03;12.07;;;;;;;21.71;81.29;97825.91;4991561;28;20725;-65
2021/09/29 07:36:34;;;;;;;13.20;11.90;;;;;;;21.74;81.31;97830.31;4996827;28;20228;-63
2021/09/29 07:39:01;;;;;;;13.73;12.30;;;;;;;21.73;81.51;97829.41;4997172;28;20220;-65
2021/09/29 07:41:28;;;;;;;13.20;11.80;;;;;;;21.75;81.63;97828.63;4996406;28;20291;-65
2021/09/29 07:43:54;;;;;;;13.00;11.60;;;;;;;21.63;81.58;97808.59;5008242;28;20214;-65
2021/09/29 07:46:21;;;;;;;13.40;11.80;;;;;;;21.77;81.77;97832.97;5030785;28;20792;-65
2021/09/29 07:48:48;;;;;;;12.13;10.93;;;;;;;21.77;81.58;97838.09;4989378;28;20233;-64
2021/09/29 07:51:15;;;;;;;12.47;11.17;;;;;;;21.78;81.89;97844.06;5006327;28;20287;-66
2021/09/29 07:53:41;;;;;;;12.27;11.07;;;;;;;21.79;81.94;97846.69;4984617;28;20287;-65
2021/09/29 07:56:08;;;;;;;13.50;11.70;;;;;;;21.67;81.79;97830.88;4991983;28;20265;-65
2021/09/29 07:58:35;;;;;;;12.87;10.80;;;;;;;21.79;81.98;97854.34;4981661;28;20647;-65
2021/09/29 08:01:01;;;;;;;12.27;11.00;;;;;;;21.79;81.94;97849.25;4993965;28;20628;-65
2021/09/29 08:03:28;;;;;;;11.97;10.57;;;;;;;21.79;82.01;97851.78;5023635;28;20259;-65
2021/09/29 08:06:00;;;;;;;11.43;10.30;;;;;;;21.80;82.00;97857.78;4997128;28;20589;-65
2021/09/29 08:08:26;;;;;;;10.93;9.63;;;;;;;21.80;82.08;97861.22;5006351;28;20209;-65
2021/09/29 08:10:53;;;;;;;10.83;9.83;;;;;;;20.93;81.83;97712.41;4999657;28;20629;-65
2021/09/29 08:13:20;;;;;;;11.23;10.13;;;;;;;21.65;81.97;97835.09;4982367;28;20210;-65
2021/09/29 08:15:46;;;;;;;11.33;10.07;;;;;;;21.48;82.22;97814.06;4995177;28;20283;-65
2021/09/29 08:18:13;;;;;;;11.80;10.37;;;;;;;21.81;81.95;97869.75;4980092;28;20729;-66
2021/09/29 08:20:41;;;;;;;10.93;9.83;;;;;;;21.81;82.36;97872.31;4981782;28;20450;-65
2021/09/29 08:23:23;;;;;;;11.23;10.03;;;;;;;20.77;82.23;97698.22;5002235;28;20657;-65
2021/09/29 08:31:25;;;;;;;10.37;9.37;;;;;;;21.71;82.63;97860.88;5010628;28;20206;-65
2021/09/29 08:44:54;;;;;;;9.87;8.97;;;;;;;21.81;82.94;97890.22;5000747;28;20322;-65
2021/09/29 09:17:00;;;;;;;8.33;7.53;;;;;;;21.17;82.79;97769.50;4985089;28;20703;-65
2021/09/29 09:19:29;;;;;;;9.03;8.13;;;;;;;21.87;82.59;97890.47;4960945;28;20237;-65
2021/09/29 09:22:02;;;;;;;8.27;7.47;;;;;;;21.87;82.85;97888.75;4968130;28;20709;-65
2021/09/29 09:24:31;;;;;;;8.17;7.37;;;;;;;21.86;82.62;97893.81;4984571;28;20209;-65
2021/09/29 09:27:03;;;;;;;8.40;7.60;;;;;;;21.86;82.76;97884.47;4997414;28;20222;-65
2021/09/29 09:29:30;;;;;;;8.17;7.37;;;;;;;21.56;82.59;97829.69;4995076;28;20238;-65
2021/09/29 09:32:07;;;;;;;8.37;7.50;;;;;;;21.82;82.72;97867.28;4982963;28;20623;-65
2021/09/29 09:34:34;;;;;;;7.40;6.70;;;;;;;21.86;82.85;97869.13;4982604;28;20690;-65
2021/09/29 09:37:01;;;;;;;7.70;7.00;;;;;;;21.73;82.79;97854.13;5013156;28;20663;-65
2021/09/29 09:39:28;;;;;;;8.17;7.00;;;;;;;21.85;82.76;97877.63;5010848;28;20206;-64
2021/09/29 09:41:59;;;;;;;7.43;6.73;;;;;;;21.85;82.83;97872.50;4998316;28;20255;-65
2021/09/29 09:44:30;;;;;;;7.40;6.80;;;;;;;21.85;82.67;97871.63;4997320;28;20271;-64
2021/09/29 09:47:04;;;;;;;8.13;7.27;;;;;;;20.64;82.78;97662.88;5025284;22;20241;-70
2021/09/29 09:49:52;;;;;;;7.40;6.80;;;;;;;21.86;82.91;97881.03;5012205;28;20213;-73
2021/09/29 09:52:38;;;;;;;7.70;6.90;;;;;;;21.71;82.74;97848.09;5008146;28;20210;-72
2021/09/29 09:55:25;;;;;;;8.00;7.30;;;;;;;21.85;82.81;97872.50;4996969;28;20205;-70
2021/09/29 09:57:54;;;;;;;7.53;6.40;;;;;;;21.84;82.93;97883.53;4999986;28;20231;-71
2021/09/29 10:00:27;;;;;;;6.67;6.07;;;;;;;21.81;82.57;97867.19;4969300;28;20206;-70
2021/09/29 10:02:55;;;;;;;7.00;6.23;;;;;;;21.84;82.85;97870.75;4983077;28;20216;-70
2021/09/29 10:05:23;;;;;;;7.23;6.53;;;;;;;21.44;82.83;97793.47;4969982;28;20302;-70
2021/09/29 10:07:50;;;;;;;7.07;6.37;;;;;;;21.78;82.68;97865.41;4969476;28;20237;-73
2021/09/29 10:26:07;;;;;;;7.20;5.93;;;;;;;21.44;83.10;97785.78;4986077;28;20688;-70
2021/09/29 10:27:06;;;;;;;7.00;5.90;;;;;;;21.83;82.68;97847.66;5015670;28;20224;-70
2021/09/29 10:29:46;;;;;;;7.30;5.33;;;;;;;21.79;82.13;97848.38;5007156;28;20303;-72
2021/09/29 10:32:27;;;;;;;5.70;5.10;;;;;;;21.80;82.20;97840.75;5003131;28;20285;-70
2021/09/29 10:35:04;;;;;;;6.60;5.83;;;;;;;21.71;82.28;97814.84;5002115;28;20248;-70
2021/09/29 10:37:53;;;;;;;5.70;5.10;;;;;;;21.79;82.05;97839.00;4975948;28;20245;-70
2021/09/29 10:40:33;;;;;;;5.23;4.73;;;;;;;21.77;81.95;97837.22;4993126;28;20737;-71
2021/09/29 10:43:05;;;;;;;5.23;4.70;;;;;;;21.73;81.96;97830.25;5015577;28;20355;-73
2021/09/29 11:30:57;;;;;;;4.07;3.47;;;;;;;21.82;81.71;97822.91;4994964;28;20285;-71
2021/09/29 11:49:54;;;;;;;5.33;3.50;;;;;;;21.79;80.95;97808.31;5008139;28;20202;-71
2021/09/29 12:09:16;;;;;;;3.90;3.27;;;;;;;21.67;81.43;97778.03;4985686;28;20312;-70
2021/09/29 12:11:54;;;;;;;4.90;2.87;;;;;;;21.76;81.84;97792.00;4978262;28;20209;-71
2021/09/29 12:14:24;;;;;;;3.90;3.27;;;;;;;21.78;81.41;97791.22;4966111;28;20241;-71
2021/09/29 12:16:50;;;;;;;3.17;2.83;;;;;;;21.79;81.88;97792.94;4965547;28;20233;-70
2021/09/29 12:19:33;;;;;;;3.60;2.80;;;;;;;21.79;81.63;97785.28;4961026;28;20214;-72
2021/09/29 12:22:04;;;;;;;3.83;3.10;;;;;;;21.73;81.72;97778.25;4967404;28;20209;-71
2021/09/29 12:24:47;;;;;;;3.10;2.80;;;;;;;21.80;81.83;97786.16;4982799;28;20193;-70
2021/09/29 12:27:38;;;;;;;3.00;2.70;;;;;;;21.80;81.65;97781.03;5000297;28;20304;-71
2021/09/29 12:30:29;;;;;;;3.33;2.80;;;;;;;21.76;82.03;97776.66;5004795;28;20229;-71
2021/09/29 12:33:04;;;;;;;2.83;2.63;;;;;;;21.82;81.76;97781.97;5013493;28;20194;-70
2021/09/29 12:35:54;;;;;;;3.13;2.83;;;;;;;21.81;82.09;97781.09;4995541;28;20202;-71
2021/09/29 12:38:21;;;;;;;3.10;2.80;;;;;;;21.78;81.82;97775.00;4957438;28;20198;-71
2021/09/29 12:40:50;;;;;;;3.20;2.90;;;;;;;21.80;81.84;97778.47;5008096;28;20296;-70
2021/09/29 12:43:18;;;;;;;3.53;2.93;;;;;;;21.75;81.66;97767.22;4979867;28;20282;-70
2021/09/29 12:45:49;;;;;;;3.60;2.90;;;;;;;21.74;81.47;97768.94;4973045;28;20775;-71
2021/09/29 12:48:18;;;;;;;3.10;2.80;;;;;;;21.81;81.51;97777.66;4969731;28;20206;-70
2021/09/29 12:55:53;;;;;;;3.00;2.70;;;;;;;21.50;81.84;97725.47;4981241;28;20309;-71
2021/09/29 12:58:20;;;;;;;2.87;2.50;;;;;;;21.77;81.79;97775.81;4986838;28;20917;-70
2021/09/29 13:00:47;;;;;;;3.10;2.80;;;;;;;21.68;81.81;97764.44;4965736;28;20612;-71
2021/09/29 13:03:13;;;;;;;3.43;2.50;;;;;;;21.57;81.86;97747.88;4962660;28;20214;-70
2021/09/29 13:05:41;;;;;;;2.73;2.47;;;;;;;21.18;81.85;97674.13;4984954;28;20224;-71
2021/09/29 13:08:08;;;;;;;2.80;2.50;;;;;;;21.81;82.04;97778.53;4955237;28;20213;-68
2021/09/29 13:10:35;;;;;;;3.73;2.93;;;;;;;21.80;82.03;97770.81;4979065;28;20521;-70
2021/09/29 13:13:02;;;;;;;3.40;2.77;;;;;;;21.75;82.19;97770.66;4951716;28;20218;-71
2021/09/29 13:15:29;;;;;;;3.87;2.63;;;;;;;21.65;81.87;97751.53;4950159;28;20273;-71
2021/09/29 13:17:57;;;;;;;2.80;2.40;;;;;;;21.81;81.64;97772.53;4949835;28;20213;-71
2021/09/29 13:20:30;;;;;;;2.50;2.30;;;;;;;21.50;81.37;97715.25;4996601;28;20882;-71
2021/09/29 13:23:04;;;;;;;3.77;2.47;;;;;;;21.78;81.59;97759.63;4968464;28;20207;-69
2021/09/29 13:36:41;;;;;;;2.40;2.20;;;;;;;21.81;81.19;97772.53;4983565;28;20665;-71
2021/09/29 13:39:09;;;;;;;2.33;2.13;;;;;;;21.81;81.38;97769.97;4974410;28;20287;-70
2021/09/29 13:41:36;;;;;;;2.40;2.20;;;;;;;21.69;81.09;97755.06;5010022;28;20340;-72
2021/09/29 13:44:03;;;;;;;2.17;1.97;;;;;;;21.81;81.42;97775.97;4969862;28;20272;-70
2021/09/29 13:46:29;;;;;;;2.50;2.30;;;;;;;21.66;81.44;97745.63;5005011;28;21005;-70
2021/09/29 13:48:58;;;;;;;3.20;2.17;;;;;;;21.72;81.50;97752.63;4979440;28;20576;-71
2021/09/29 13:51:27;;;;;;;2.47;2.27;;;;;;;21.81;81.40;97769.97;4999276;28;20234;-72
2021/09/29 13:53:54;;;;;;;2.17;1.97;;;;;;;21.74;81.39;97756.13;4992609;28;20640;-73
2021/09/29 13:56:24;;;;;;;2.83;2.27;;;;;;;21.69;81.17;97747.41;4967304;28;20242;-71
2021/09/29 14:34:14;;;;;;;2.20;2.00;;;;;;;21.76;81.63;97772.38;4992641;28;20242;-70
2021/09/29 14:36:41;;;;;;;2.10;1.90;;;;;;;21.61;81.32;97731.81;4981369;28;20247;-71
2021/09/29 14:39:07;;;;;;;2.13;1.80;;;;;;;21.71;81.36;97749.19;4991616;28;20329;-71
2021/09/29 14:41:34;;;;;;;3.53;2.33;;;;;;;21.75;81.25;97755.31;4981375;28;20261;-72
2021/09/29 14:44:01;;;;;;;2.50;1.90;;;;;;;21.75;81.04;97752.75;4991621;28;20230;-70
2021/09/29 14:46:28;;;;;;;2.60;2.00;;;;;;;21.54;81.00;97703.44;4980345;28;20249;-70